Time;durP1;ratioP1;P1;durP2;ratioP2;P2;SDS_P1;SDS_P2;PMS_P1;PMS_P2;Temp;Humidity;BMP_temperature;BMP_pressure;BME280_temperature;BME280_humidity;BME280_pressure;Samples;Min_cycle;Max_cycle;Signal;HPM_P1;HPM_P2
2022/10/06 00:01:43;;;;;;;5.95;4.30;;;16.90;99.90;;;;;;5012793;28;20022;-54
2022/10/06 00:04:29;;;;;;;5.95;4.60;;;17.10;99.90;;;;;;5024459;28;20120;-58
2022/10/06 00:07:16;;;;;;;9.52;4.65;;;17.20;99.90;;;;;;5021190;28;20089;-54
2022/10/06 00:10:03;;;;;;;5.97;4.28;;;17.40;99.90;;;;;;5014775;28;20414;-54
2022/10/06 00:12:50;;;;;;;7.05;4.70;;;17.60;99.90;;;;;;5029725;28;20033;-48
2022/10/06 00:15:36;;;;;;;10.60;4.78;;;17.50;99.90;;;;;;5011939;28;20375;-53
2022/10/06 00:18:22;;;;;;;6.57;4.50;;;17.60;99.90;;;;;;5008130;28;20040;-53
2022/10/06 00:21:09;;;;;;;6.35;4.10;;;17.60;99.90;;;;;;5014403;28;20022;-53
2022/10/06 00:23:55;;;;;;;7.78;4.20;;;17.70;99.90;;;;;;5000269;28;20409;-49
2022/10/06 00:26:41;;;;;;;6.30;4.13;;;17.60;99.90;;;;;;5000255;28;20037;-50
2022/10/06 00:29:26;;;;;;;5.57;3.97;;;17.70;99.90;;;;;;5014519;28;20033;-50
2022/10/06 00:32:12;;;;;;;5.03;4.22;;;17.80;99.90;;;;;;5021457;28;20025;-54
2022/10/06 00:34:58;;;;;;;7.60;3.88;;;17.90;99.90;;;;;;5033463;28;20501;-54
2022/10/06 00:37:44;;;;;;;6.88;4.53;;;18.00;99.90;;;;;;5005368;28;20521;-54
2022/10/06 00:40:31;;;;;;;5.85;4.25;;;17.90;99.90;;;;;;5013428;28;20417;-57
2022/10/06 00:43:38;;;;;;;6.75;4.28;;;17.90;99.90;;;;;;5029669;28;20022;-53
2022/10/06 00:46:36;;;;;;;6.35;4.35;;;17.80;99.90;;;;;;5011914;28;20021;-51
2022/10/06 00:49:37;;;;;;;6.13;4.30;;;17.80;99.90;;;;;;5032152;28;20031;-54
2022/10/06 00:52:27;;;;;;;8.25;4.10;;;17.80;99.90;;;;;;5023584;28;20032;-48
2022/10/06 00:55:14;;;;;;;5.88;4.07;;;17.70;99.90;;;;;;5019963;28;20037;-55
2022/10/06 00:58:00;;;;;;;6.43;4.28;;;17.70;99.90;;;;;;5032947;28;20489;-50
2022/10/06 01:00:49;;;;;;;6.10;4.40;;;17.60;99.90;;;;;;5031097;28;20116;-53
2022/10/06 01:03:40;;;;;;;5.93;4.05;;;17.50;99.90;;;;;;5032357;28;20037;-52
2022/10/06 01:06:26;;;;;;;8.93;4.40;;;17.40;99.90;;;;;;5013361;28;20034;-50
2022/10/06 01:09:15;;;;;;;5.03;4.30;;;17.30;99.90;;;;;;5012152;28;20412;-51
2022/10/06 01:12:05;;;;;;;4.95;4.15;;;17.30;99.90;;;;;;5028917;28;20406;-50
2022/10/06 01:14:51;;;;;;;7.57;4.75;;;17.30;99.90;;;;;;5025789;28;20045;-50
2022/10/06 01:18:03;;;;;;;8.43;4.60;;;17.20;99.90;;;;;;5013722;28;20034;-52
2022/10/06 01:21:00;;;;;;;7.55;4.18;;;17.30;99.90;;;;;;5031853;28;20032;-53
2022/10/06 01:23:48;;;;;;;8.65;4.35;;;17.40;99.90;;;;;;5014036;28;20061;-58
2022/10/06 01:26:41;;;;;;;5.50;4.40;;;17.30;99.90;;;;;;5013272;28;20029;-53
2022/10/06 01:29:27;;;;;;;7.95;4.28;;;17.40;99.90;;;;;;5012891;28;20030;-53
2022/10/06 01:32:13;;;;;;;5.07;4.03;;;17.40;99.90;;;;;;5015483;28;20025;-47
2022/10/06 01:34:59;;;;;;;6.32;4.50;;;17.40;99.90;;;;;;5020536;28;20030;-54
2022/10/06 01:37:45;;;;;;;4.80;4.07;;;17.40;99.90;;;;;;5033146;28;20034;-51
2022/10/06 01:40:31;;;;;;;5.32;4.20;;;17.40;99.90;;;;;;5025847;28;20061;-49
2022/10/06 01:43:17;;;;;;;8.13;5.30;;;17.40;99.90;;;;;;5030488;28;20029;-52
2022/10/06 01:46:03;;;;;;;7.50;4.57;;;17.40;99.90;;;;;;5012239;28;20018;-51
2022/10/06 01:48:49;;;;;;;6.15;5.03;;;17.40;99.90;;;;;;5025816;28;20025;-57
2022/10/06 01:51:35;;;;;;;5.47;4.45;;;17.40;99.90;;;;;;5030139;28;20588;-56
2022/10/06 01:54:21;;;;;;;5.03;4.18;;;17.40;99.90;;;;;;5022786;28;20038;-55
2022/10/06 01:57:07;;;;;;;5.43;4.03;;;17.30;99.90;;;;;;5011570;28;20026;-55
2022/10/06 01:59:53;;;;;;;8.73;4.80;;;17.30;99.90;;;;;;5024470;28;20409;-53
2022/10/06 02:02:40;;;;;;;8.70;4.88;;;17.30;99.90;;;;;;5014439;28;20108;-54
2022/10/06 02:05:26;;;;;;;7.82;4.30;;;17.30;99.90;;;;;;5019682;28;20034;-56
2022/10/06 02:08:12;;;;;;;6.55;4.38;;;17.20;99.90;;;;;;5033705;28;20029;-56
2022/10/06 02:10:58;;;;;;;6.95;4.25;;;17.20;99.90;;;;;;5016900;28;20026;-54
2022/10/06 02:13:44;;;;;;;5.68;4.38;;;17.20;99.90;;;;;;5001544;28;20041;-56
2022/10/06 02:16:30;;;;;;;6.20;4.22;;;17.20;99.90;;;;;;5018162;28;20112;-56
2022/10/06 02:19:17;;;;;;;4.68;3.90;;;17.10;99.90;;;;;;5032975;28;20517;-55
2022/10/06 02:22:03;;;;;;;6.65;4.20;;;17.10;99.90;;;;;;5021893;28;20493;-56
2022/10/06 02:24:49;;;;;;;8.15;4.20;;;17.10;99.90;;;;;;5013581;28;20481;-57
2022/10/06 02:27:35;;;;;;;5.72;4.30;;;17.00;99.90;;;;;;5024191;28;20052;-53
2022/10/06 02:30:21;;;;;;;5.03;4.13;;;17.10;99.90;;;;;;5008849;28;20505;-56
2022/10/06 02:33:07;;;;;;;5.97;4.30;;;17.00;99.90;;;;;;5015122;28;20041;-55
2022/10/06 02:35:54;;;;;;;6.35;4.50;;;17.00;99.90;;;;;;5018831;28;20053;-58
2022/10/06 02:38:40;;;;;;;7.72;4.68;;;17.00;99.90;;;;;;5024408;28;20058;-57
2022/10/06 02:41:26;;;;;;;5.78;4.30;;;16.90;99.90;;;;;;5013487;28;20060;-54
2022/10/06 02:44:12;;;;;;;5.03;4.28;;;17.00;99.90;;;;;;5025323;28;20515;-58
2022/10/06 02:46:58;;;;;;;5.45;4.32;;;17.00;99.90;;;;;;4979493;28;20054;-54
2022/10/06 02:49:45;;;;;;;6.80;5.03;;;17.00;99.90;;;;;;5027765;28;20034;-58
2022/10/06 02:52:36;;;;;;;6.28;4.32;;;17.10;99.90;;;;;;5031847;28;20022;-57
2022/10/06 02:55:22;;;;;;;5.93;4.18;;;17.10;99.90;;;;;;5000599;28;20785;-58
2022/10/06 02:58:10;;;;;;;5.85;4.30;;;17.10;99.90;;;;;;5027167;28;20038;-60
2022/10/06 03:01:06;;;;;;;5.50;4.55;;;17.10;99.90;;;;;;5019289;28;20146;-54
2022/10/06 03:03:52;;;;;;;5.13;4.20;;;17.10;99.90;;;;;;5031114;28;20022;-57
2022/10/06 03:06:38;;;;;;;6.75;4.30;;;17.00;99.90;;;;;;5000922;28;20584;-59
2022/10/06 03:09:24;;;;;;;4.80;3.97;;;17.00;99.90;;;;;;4999090;28;20034;-58
2022/10/06 03:12:11;;;;;;;5.78;3.60;;;17.00;99.90;;;;;;4993326;28;20094;-58
2022/10/06 03:14:57;;;;;;;8.68;4.40;;;17.00;99.90;;;;;;5001048;28;20135;-58
2022/10/06 03:17:47;;;;;;;8.35;4.10;;;17.00;99.90;;;;;;5031664;28;20107;-56
2022/10/06 03:20:34;;;;;;;5.07;4.20;;;16.90;99.90;;;;;;5010066;28;20066;-58
2022/10/06 03:23:20;;;;;;;5.97;3.78;;;17.00;99.90;;;;;;5011811;28;20034;-58
2022/10/06 03:26:06;;;;;;;5.28;4.35;;;17.00;99.90;;;;;;5003197;28;20038;-59
2022/10/06 03:28:53;;;;;;;6.95;3.95;;;17.00;99.90;;;;;;5031327;28;20029;-60
2022/10/06 03:31:39;;;;;;;4.80;3.97;;;17.10;99.90;;;;;;5019298;28;20050;-59
2022/10/06 03:34:25;;;;;;;7.00;4.00;;;17.00;99.90;;;;;;4998782;28;20044;-57
2022/10/06 03:37:11;;;;;;;5.18;3.72;;;17.00;99.90;;;;;;5012289;28;20509;-59
2022/10/06 03:39:57;;;;;;;6.68;4.43;;;17.00;99.90;;;;;;5024644;28;20189;-59
2022/10/06 03:42:43;;;;;;;6.85;4.93;;;17.00;99.90;;;;;;4992476;28;20504;-60
2022/10/06 03:45:28;;;;;;;5.97;3.90;;;17.00;99.90;;;;;;4992933;28;20026;-60
2022/10/06 03:48:14;;;;;;;6.72;4.00;;;17.00;99.90;;;;;;4991014;28;20030;-60
2022/10/06 03:51:03;;;;;;;3.97;2.60;;;16.90;99.90;;;;;;4990530;28;20035;-58
2022/10/06 03:53:50;;;;;;;6.07;2.30;;;16.80;99.90;;;;;;5011221;28;20549;-59
2022/10/06 03:56:39;;;;;;;1.60;1.50;;;16.40;99.90;;;;;;5027693;28;20036;-58
2022/10/06 03:59:27;;;;;;;2.70;1.80;;;16.20;99.90;;;;;;5029136;28;20097;-57
2022/10/06 04:02:13;;;;;;;2.50;1.52;;;16.10;99.90;;;;;;5019025;28;20053;-60
2022/10/06 04:05:00;;;;;;;4.40;2.10;;;16.00;99.90;;;;;;5014841;28;20053;-59
2022/10/06 04:07:46;;;;;;;1.80;1.70;;;15.90;99.90;;;;;;4995971;28;20033;-59
2022/10/06 04:10:32;;;;;;;2.53;1.80;;;15.80;99.90;;;;;;5012180;28;20560;-58
2022/10/06 04:13:20;;;;;;;1.60;1.50;;;15.80;99.90;;;;;;5023504;28;20125;-61
2022/10/06 04:16:15;;;;;;;2.55;1.77;;;15.70;99.90;;;;;;5034803;28;20493;-58
2022/10/06 04:19:04;;;;;;;2.08;1.85;;;15.60;99.90;;;;;;5000954;28;20129;-55
2022/10/06 04:21:50;;;;;;;2.47;1.77;;;15.60;99.90;;;;;;5019356;28;20467;-60
2022/10/06 04:24:36;;;;;;;2.47;1.52;;;15.60;99.90;;;;;;5034003;28;20204;-56
2022/10/06 04:27:27;;;;;;;2.65;1.70;;;15.60;99.90;;;;;;5017705;28;20061;-58
2022/10/06 04:30:14;;;;;;;2.53;1.65;;;15.50;99.90;;;;;;5032313;28;20033;-59
2022/10/06 04:33:00;;;;;;;1.45;1.35;;;15.40;99.90;;;;;;5034245;28;20497;-58
2022/10/06 04:35:45;;;;;;;3.67;1.67;;;15.50;99.90;;;;;;5019276;28;20512;-55
2022/10/06 04:38:33;;;;;;;3.17;2.17;;;15.50;99.90;;;;;;5015341;28;20113;-59
2022/10/06 04:41:19;;;;;;;2.95;2.25;;;15.30;99.90;;;;;;5027461;28;20374;-59
2022/10/06 04:44:06;;;;;;;1.95;1.55;;;15.40;99.90;;;;;;5029332;28;20083;-58
2022/10/06 04:46:52;;;;;;;2.97;1.67;;;15.50;99.90;;;;;;5029469;28;20022;-56
2022/10/06 04:49:38;;;;;;;1.45;1.33;;;15.40;99.90;;;;;;5015167;28;20096;-57
2022/10/06 04:52:24;;;;;;;1.63;1.50;;;15.40;99.90;;;;;;5017957;28;20026;-56
2022/10/06 04:55:10;;;;;;;1.75;1.52;;;15.30;99.90;;;;;;5035078;28;20032;-59
2022/10/06 04:57:55;;;;;;;2.20;1.50;;;15.40;99.90;;;;;;5017529;28;20034;-65
2022/10/06 05:00:41;;;;;;;2.30;1.70;;;15.40;99.90;;;;;;5013386;28;20030;-60
2022/10/06 05:03:28;;;;;;;2.63;1.60;;;15.50;99.90;;;;;;5024964;28;20493;-60
2022/10/06 05:06:20;;;;;;;2.42;1.33;;;15.50;99.90;;;;;;5015788;28;20045;-56
2022/10/06 05:09:08;;;;;;;3.03;1.70;;;15.60;99.90;;;;;;5001929;28;20037;-59
2022/10/06 05:11:54;;;;;;;3.58;1.80;;;15.60;99.90;;;;;;5012986;28;20034;-57
2022/10/06 05:14:40;;;;;;;2.70;1.58;;;15.60;99.90;;;;;;5000805;28;20034;-60
2022/10/06 05:17:26;;;;;;;4.68;2.05;;;15.70;99.90;;;;;;5014761;28;20497;-58
2022/10/06 05:20:12;;;;;;;2.10;1.85;;;15.70;99.90;;;;;;5031442;28;20402;-59
2022/10/06 05:22:58;;;;;;;3.40;1.85;;;15.80;99.90;;;;;;5013767;28;20030;-59
2022/10/06 05:25:53;;;;;;;2.33;1.90;;;15.60;99.90;;;;;;5017806;28;20034;-58
2022/10/06 05:28:39;;;;;;;4.47;2.00;;;15.50;99.90;;;;;;5015343;28;20036;-60
2022/10/06 05:31:27;;;;;;;4.43;1.70;;;15.40;99.90;;;;;;5014641;28;20125;-58
2022/10/06 05:34:13;;;;;;;3.60;1.95;;;15.60;99.90;;;;;;5000686;28;20100;-59
2022/10/06 05:36:59;;;;;;;2.83;2.03;;;15.70;99.90;;;;;;5016295;28;20029;-57
2022/10/06 05:39:45;;;;;;;3.30;1.42;;;15.70;99.90;;;;;;5034034;28;20022;-58
2022/10/06 05:42:31;;;;;;;4.28;2.00;;;15.70;99.90;;;;;;5001134;28;20022;-59
2022/10/06 05:45:17;;;;;;;4.78;2.13;;;15.70;99.90;;;;;;5012334;28;20029;-55
2022/10/06 05:48:03;;;;;;;5.38;2.30;;;15.70;99.90;;;;;;5032339;28;20037;-56
2022/10/06 05:51:00;;;;;;;6.93;2.00;;;15.50;99.90;;;;;;5018675;28;20045;-58
2022/10/06 05:53:47;;;;;;;6.47;2.38;;;15.50;99.90;;;;;;5015543;28;20026;-59
2022/10/06 05:56:35;;;;;;;4.60;2.30;;;15.50;99.90;;;;;;4982070;28;20037;-60
2022/10/06 05:59:21;;;;;;;2.88;1.90;;;15.40;99.90;;;;;;5003182;28;20049;-59
2022/10/06 06:02:08;;;;;;;2.60;1.98;;;15.50;99.90;;;;;;5028795;28;20151;-58
2022/10/06 06:04:54;;;;;;;4.40;2.10;;;15.30;99.90;;;;;;4999612;28;20029;-59
2022/10/06 06:07:40;;;;;;;5.68;2.17;;;15.30;99.90;;;;;;5000115;28;20037;-59
2022/10/06 06:10:25;;;;;;;3.30;1.90;;;15.10;99.90;;;;;;5020836;28;20038;-58
2022/10/06 06:13:11;;;;;;;5.00;2.08;;;15.10;99.90;;;;;;5029161;28;20029;-59
2022/10/06 06:16:03;;;;;;;3.50;1.92;;;15.20;99.90;;;;;;5021722;28;20058;-59
2022/10/06 06:18:49;;;;;;;8.80;2.70;;;15.10;99.90;;;;;;5031767;28;20040;-58
2022/10/06 06:21:35;;;;;;;5.30;2.33;;;15.00;99.90;;;;;;5020228;28;20425;-54
2022/10/06 06:24:21;;;;;;;7.00;2.70;;;15.00;99.90;;;;;;4992807;28;20030;-58
2022/10/06 06:27:07;;;;;;;4.38;2.38;;;15.20;99.90;;;;;;4998773;28;20033;-56
2022/10/06 06:29:53;;;;;;;6.30;2.47;;;15.20;99.90;;;;;;4989337;28;20061;-55
2022/10/06 06:32:39;;;;;;;4.75;2.10;;;15.20;99.90;;;;;;5030713;28;20029;-55
2022/10/06 06:35:25;;;;;;;5.68;3.05;;;15.10;99.90;;;;;;5006661;28;20710;-58
2022/10/06 06:38:11;;;;;;;5.55;2.20;;;15.20;99.90;;;;;;5021161;28;20037;-59
2022/10/06 06:40:57;;;;;;;6.72;2.97;;;15.10;99.90;;;;;;5016429;28;20389;-57
2022/10/06 06:43:44;;;;;;;5.50;2.22;;;15.10;99.90;;;;;;5015488;28;20026;-57
2022/10/06 06:46:30;;;;;;;8.38;3.17;;;14.80;99.90;;;;;;5028072;28;20664;-56
2022/10/06 06:49:19;;;;;;;6.45;2.50;;;14.80;99.90;;;;;;5013917;28;20034;-60
2022/10/06 06:52:05;;;;;;;6.28;2.70;;;15.10;99.90;;;;;;4996499;28;20026;-60
2022/10/06 06:54:51;;;;;;;8.07;2.50;;;15.20;99.90;;;;;;5013037;28;20085;-59
2022/10/06 06:57:37;;;;;;;4.35;2.85;;;15.30;99.90;;;;;;5010117;28;20030;-60
2022/10/06 07:00:22;;;;;;;7.40;3.05;;;15.40;99.90;;;;;;4997666;28;20065;-55
2022/10/06 07:03:13;;;;;;;8.40;3.25;;;15.40;99.90;;;;;;5022313;28;20446;-57
2022/10/06 07:06:09;;;;;;;9.27;3.00;;;15.20;99.90;;;;;;5017902;28;20090;-54
2022/10/06 07:08:59;;;;;;;9.85;2.97;;;15.10;99.90;;;;;;4977763;28;20623;-51
2022/10/06 07:11:45;;;;;;;6.03;2.80;;;15.10;99.90;;;;;;4992274;28;20098;-51
2022/10/06 07:14:31;;;;;;;8.88;3.03;;;15.10;99.90;;;;;;5010621;28;20092;-56
2022/10/06 07:26:31;;;;;;;8.30;2.80;;;15.20;99.90;;;;;;5019706;28;20035;-53
2022/10/06 07:29:20;;;;;;;11.43;2.92;;;15.20;99.70;;;;;;5009375;28;20034;-51
2022/10/06 07:32:06;;;;;;;12.15;3.50;;;15.30;99.70;;;;;;5019938;28;20049;-50
2022/10/06 07:34:52;;;;;;;8.52;2.78;;;15.20;99.80;;;;;;4998011;28;20045;-56
2022/10/06 07:37:39;;;;;;;10.68;3.63;;;15.20;99.40;;;;;;5015124;28;20033;-54
2022/10/06 07:40:25;;;;;;;10.68;2.70;;;15.10;99.70;;;;;;4996936;28;20015;-50
2022/10/06 07:43:11;;;;;;;8.45;3.00;;;15.10;99.90;;;;;;5011311;28;20033;-55
2022/10/06 07:45:57;;;;;;;9.32;3.75;;;15.20;99.90;;;;;;5031397;28;20084;-53
2022/10/06 07:48:45;;;;;;;9.45;2.90;;;15.40;99.90;;;;;;5020192;28;20405;-52
2022/10/06 07:51:31;;;;;;;14.90;3.60;;;15.50;99.60;;;;;;5000656;28;20033;-52
2022/10/06 07:54:17;;;;;;;9.65;3.08;;;15.50;99.90;;;;;;5032488;28;20036;-52
2022/10/06 07:57:03;;;;;;;8.38;3.03;;;15.40;99.60;;;;;;5033697;28;20033;-50
2022/10/06 07:59:49;;;;;;;7.40;3.60;;;15.30;99.90;;;;;;5015156;28;20112;-51
2022/10/06 08:02:35;;;;;;;7.15;3.10;;;15.30;99.90;;;;;;5015406;28;20485;-51
2022/10/06 08:05:21;;;;;;;6.90;2.83;;;15.30;99.70;;;;;;5019347;28;20406;-55
2022/10/06 08:08:07;;;;;;;10.07;3.50;;;15.20;99.80;;;;;;5027642;28;20490;-51
2022/10/06 08:10:55;;;;;;;10.18;4.00;;;15.40;99.60;;;;;;5018474;28;20481;-55
2022/10/06 08:13:43;;;;;;;9.70;3.30;;;15.50;99.10;;;;;;4991203;28;20029;-52
2022/10/06 08:16:30;;;;;;;6.90;3.10;;;15.50;98.80;;;;;;5000654;28;20401;-56
2022/10/06 08:19:18;;;;;;;8.45;3.30;;;15.50;98.20;;;;;;5027992;28;20563;-52
2022/10/06 08:22:04;;;;;;;14.05;3.60;;;15.60;98.40;;;;;;5018093;28;20029;-55
2022/10/06 08:24:51;;;;;;;9.85;3.70;;;15.90;98.00;;;;;;5000354;28;20057;-54
2022/10/06 08:27:39;;;;;;;10.07;3.30;;;15.90;97.70;;;;;;5016510;28;20034;-56
2022/10/06 08:30:25;;;;;;;9.98;3.75;;;15.70;97.60;;;;;;5020428;28;20038;-53
2022/10/06 08:33:12;;;;;;;7.40;2.97;;;15.60;97.60;;;;;;5012401;28;20652;-56
2022/10/06 08:36:09;;;;;;;9.02;3.15;;;15.60;97.20;;;;;;5028167;28;20044;-57
2022/10/06 08:38:55;;;;;;;5.97;2.97;;;15.70;97.80;;;;;;5022310;28;20033;-51
2022/10/06 08:41:50;;;;;;;9.02;3.10;;;15.80;96.60;;;;;;5025209;28;20025;-55
2022/10/06 08:44:56;;;;;;;8.30;3.20;;;15.70;96.60;;;;;;5021366;28;20073;-56
2022/10/06 08:48:09;;;;;;;11.38;3.72;;;15.70;96.80;;;;;;5026004;28;20513;-56
2022/10/06 08:51:07;;;;;;;12.25;3.33;;;15.70;96.90;;;;;;5022675;28;20827;-55
2022/10/06 08:54:17;;;;;;;17.65;4.03;;;15.70;97.10;;;;;;5024117;28;20101;-56
2022/10/06 08:57:17;;;;;;;10.30;3.70;;;16.00;96.60;;;;;;5020942;28;20614;-56
2022/10/06 09:00:09;;;;;;;10.38;3.47;;;15.90;96.70;;;;;;5020346;28;20021;-58
2022/10/06 09:03:21;;;;;;;8.27;3.30;;;16.10;96.20;;;;;;5025100;28;20053;-56
2022/10/06 09:06:33;;;;;;;8.90;3.83;;;16.20;96.20;;;;;;5014596;28;20065;-60
2022/10/06 09:09:47;;;;;;;8.82;3.75;;;16.40;95.50;;;;;;5021302;28;20025;-65
2022/10/06 09:13:05;;;;;;;8.82;3.17;;;16.30;95.20;;;;;;5019273;28;20037;-62
2022/10/06 09:16:06;;;;;;;9.85;3.22;;;16.20;95.50;;;;;;5015051;28;20029;-62
2022/10/06 09:19:14;;;;;;;5.72;2.90;;;16.00;95.30;;;;;;5025186;28;20028;-62
2022/10/06 09:22:03;;;;;;;10.60;3.22;;;16.30;94.40;;;;;;5008946;28;20033;-61
2022/10/06 09:24:55;;;;;;;7.90;3.63;;;16.30;94.50;;;;;;5029220;28;20033;-60
2022/10/06 09:27:48;;;;;;;8.85;3.20;;;16.30;94.20;;;;;;5023223;28;20026;-63
2022/10/06 09:30:35;;;;;;;12.30;3.55;;;16.20;94.30;;;;;;5016442;28;20372;-63
2022/10/06 09:33:24;;;;;;;8.40;3.50;;;16.40;94.40;;;;;;4989674;28;20041;-63
2022/10/06 09:36:11;;;;;;;10.68;3.58;;;16.70;93.80;;;;;;5002763;28;20082;-63
2022/10/06 09:38:58;;;;;;;8.70;3.72;;;16.60;93.50;;;;;;5002872;28;20042;-64
2022/10/06 09:41:45;;;;;;;10.23;3.88;;;16.30;93.70;;;;;;4992258;28;20053;-62
2022/10/06 09:44:51;;;;;;;8.82;3.22;;;16.50;93.90;;;;;;4997008;28;20082;-63
2022/10/06 09:47:43;;;;;;;6.65;3.20;;;16.60;93.90;;;;;;5010106;28;20027;-61
2022/10/06 09:50:29;;;;;;;10.75;3.00;;;16.60;93.60;;;;;;5013630;28;20026;-61
2022/10/06 09:53:15;;;;;;;8.52;3.53;;;16.60;93.60;;;;;;5012595;28;20027;-61
2022/10/06 09:56:03;;;;;;;8.48;2.95;;;16.70;93.60;;;;;;4987764;28;20081;-61
2022/10/06 09:58:55;;;;;;;11.73;3.47;;;16.70;92.90;;;;;;4996908;28;20033;-63
2022/10/06 10:01:41;;;;;;;6.93;3.38;;;16.90;93.20;;;;;;5007371;28;20030;-62
2022/10/06 10:04:36;;;;;;;8.30;3.63;;;16.80;92.80;;;;;;4991454;28;20094;-60
2022/10/06 10:07:25;;;;;;;13.00;3.63;;;16.80;92.80;;;;;;4993530;28;20041;-63
2022/10/06 10:10:21;;;;;;;8.52;3.60;;;17.00;92.60;;;;;;4995078;28;20038;-62
2022/10/06 10:13:17;;;;;;;4.05;2.70;;;17.30;91.30;;;;;;4996185;28;20057;-61
2022/10/06 10:16:04;;;;;;;8.20;3.13;;;17.20;90.90;;;;;;4995845;28;20078;-61
2022/10/06 10:18:50;;;;;;;13.27;3.08;;;17.20;90.70;;;;;;5009032;28;20054;-63
2022/10/06 10:21:37;;;;;;;13.38;3.70;;;17.20;90.70;;;;;;5008843;28;20379;-63
2022/10/06 10:24:50;;;;;;;10.25;3.60;;;17.10;91.30;;;;;;4989385;28;20028;-63
2022/10/06 10:27:57;;;;;;;5.43;2.88;;;17.20;90.50;;;;;;5002799;28;20022;-63
2022/10/06 10:31:19;;;;;;;7.10;3.33;;;17.10;91.10;;;;;;5002141;28;20046;-63
2022/10/06 10:34:23;;;;;;;11.25;3.83;;;17.10;91.10;;;;;;4989303;28;20319;-63
2022/10/06 10:37:38;;;;;;;9.15;3.30;;;17.10;90.70;;;;;;4988953;28;20119;-64
2022/10/06 10:40:27;;;;;;;9.43;3.35;;;17.20;90.50;;;;;;5003084;28;20146;-61
2022/10/06 10:43:59;;;;;;;8.00;2.92;;;17.10;90.10;;;;;;5002034;28;20019;-63
2022/10/06 10:46:50;;;;;;;5.80;3.03;;;17.10;89.70;;;;;;4994186;28;20058;-63
2022/10/06 10:49:38;;;;;;;6.72;2.75;;;16.90;90.30;;;;;;4999145;28;20447;-63
2022/10/06 10:52:29;;;;;;;9.13;3.20;;;17.20;90.00;;;;;;4986365;28;20065;-63
2022/10/06 10:55:29;;;;;;;4.45;2.67;;;17.20;88.40;;;;;;4986677;28;20041;-62
2022/10/06 10:58:40;;;;;;;13.50;3.22;;;17.20;87.90;;;;;;4975099;28;20034;-63
2022/10/06 11:01:40;;;;;;;8.85;3.25;;;17.20;87.90;;;;;;5004595;28;20030;-65
2022/10/06 11:04:26;;;;;;;10.10;3.72;;;17.30;88.30;;;;;;5001776;28;20098;-65
2022/10/06 11:07:31;;;;;;;5.32;2.72;;;17.30;88.80;;;;;;4988386;28;20027;-65
2022/10/06 11:10:17;;;;;;;8.85;3.30;;;17.50;89.20;;;;;;4988942;28;20038;-63
2022/10/06 11:13:25;;;;;;;8.80;3.72;;;17.30;89.50;;;;;;4989597;28;20031;-63
2022/10/06 11:16:23;;;;;;;8.80;3.63;;;17.60;89.80;;;;;;5008323;28;20022;-60
2022/10/06 11:19:34;;;;;;;8.57;3.58;;;17.60;89.00;;;;;;4979399;28;20033;-57
2022/10/06 11:22:41;;;;;;;10.18;4.25;;;17.60;88.90;;;;;;4991508;28;20033;-57
2022/10/06 11:26:02;;;;;;;10.38;3.20;;;17.70;88.50;;;;;;4992656;28;20554;-57
2022/10/06 11:28:52;;;;;;;8.20;3.28;;;17.90;87.90;;;;;;4991219;28;20065;-58
2022/10/06 11:31:41;;;;;;;8.93;3.88;;;17.90;87.90;;;;;;4979033;28;20034;-56
2022/10/06 11:34:27;;;;;;;8.70;3.70;;;17.80;87.80;;;;;;4979609;28;20529;-57
2022/10/06 11:37:33;;;;;;;12.98;3.60;;;18.00;88.30;;;;;;4992990;28;20121;-57
2022/10/06 11:40:37;;;;;;;9.50;3.45;;;17.80;87.00;;;;;;4991718;28;20026;-54
2022/10/06 11:43:38;;;;;;;7.32;3.47;;;17.70;88.40;;;;;;4979152;28;20057;-54
2022/10/06 11:46:32;;;;;;;8.27;3.67;;;17.60;87.20;;;;;;4992260;28;20030;-58
2022/10/06 11:49:31;;;;;;;10.77;3.53;;;17.70;87.20;;;;;;4992364;28;20187;-56
2022/10/06 11:52:17;;;;;;;8.93;3.45;;;17.50;87.80;;;;;;4991611;28;20109;-55
2022/10/06 11:55:13;;;;;;;7.93;3.20;;;17.40;87.60;;;;;;4992062;28;20447;-56
2022/10/06 11:58:01;;;;;;;8.27;3.42;;;17.60;87.50;;;;;;4992422;28;20113;-59
2022/10/06 12:00:48;;;;;;;6.60;3.15;;;17.70;86.40;;;;;;4978543;28;20023;-54
2022/10/06 12:03:45;;;;;;;7.82;3.28;;;17.90;86.00;;;;;;4992708;28;20037;-57
2022/10/06 12:06:46;;;;;;;6.80;2.80;;;17.70;85.70;;;;;;4992156;28;20067;-54
2022/10/06 12:09:39;;;;;;;8.57;3.67;;;17.90;84.40;;;;;;4978869;28;20026;-55
2022/10/06 12:12:25;;;;;;;6.85;3.30;;;18.00;84.30;;;;;;4992313;28;20402;-57
2022/10/06 12:15:15;;;;;;;7.65;3.42;;;17.90;85.10;;;;;;4992701;28;20023;-59
2022/10/06 12:18:12;;;;;;;8.13;2.92;;;18.00;84.50;;;;;;4992284;28;20371;-60
2022/10/06 12:21:23;;;;;;;8.95;3.20;;;18.00;84.50;;;;;;4992900;28;20097;-59
2022/10/06 12:24:27;;;;;;;11.60;3.72;;;18.20;83.70;;;;;;4991492;28;20014;-56
2022/10/06 12:27:38;;;;;;;11.90;4.03;;;18.10;84.70;;;;;;4978247;28;20065;-58
2022/10/06 12:30:31;;;;;;;9.45;3.38;;;18.20;83.80;;;;;;4991889;28;20034;-57
2022/10/06 12:33:18;;;;;;;4.10;2.88;;;18.40;83.20;;;;;;4993918;28;20026;-57
2022/10/06 12:36:24;;;;;;;9.75;2.92;;;18.30;83.40;;;;;;4981791;28;20030;-58
2022/10/06 12:39:20;;;;;;;;;;;18.00;83.70;;;;;;4995437;28;20030;-59
2022/10/06 12:42:17;;;;;;;8.32;3.33;;;18.00;84.70;;;;;;4995809;28;19909;-58
2022/10/06 12:45:14;;;;;;;9.48;3.13;;;18.10;83.70;;;;;;4995720;28;20512;-56
2022/10/06 12:48:03;;;;;;;9.90;2.92;;;18.20;83.00;;;;;;4981300;28;20034;-60
2022/10/06 12:50:56;;;;;;;8.13;3.10;;;18.10;80.80;;;;;;4981351;28;20023;-55
2022/10/06 12:53:51;;;;;;;10.38;3.00;;;18.00;80.80;;;;;;4995391;28;20113;-58
2022/10/06 12:56:40;;;;;;;7.15;2.90;;;18.10;81.40;;;;;;4994754;28;20030;-60
2022/10/06 12:59:26;;;;;;;7.95;3.03;;;18.40;81.40;;;;;;4995010;28;20058;-62
2022/10/06 13:02:24;;;;;;;8.68;3.15;;;18.20;82.30;;;;;;4980564;28;20402;-64
2022/10/06 13:05:11;;;;;;;5.10;2.45;;;18.10;81.80;;;;;;4996222;28;20058;-63
2022/10/06 13:08:05;;;;;;;7.93;2.78;;;18.30;82.20;;;;;;4998880;28;20026;-56
2022/10/06 13:11:22;;;;;;;6.60;2.58;;;18.50;82.20;;;;;;4995422;28;20028;-55
2022/10/06 13:14:12;;;;;;;10.43;3.10;;;18.70;80.80;;;;;;4994942;28;20474;-57
2022/10/06 13:17:00;;;;;;;8.98;3.40;;;18.90;80.10;;;;;;4994502;28;20062;-58
2022/10/06 13:19:45;;;;;;;11.52;3.08;;;18.90;78.30;;;;;;4993965;28;20061;-57
2022/10/06 13:22:31;;;;;;;4.60;2.80;;;18.60;78.70;;;;;;4994893;28;20022;-58
2022/10/06 13:25:17;;;;;;;7.55;2.90;;;18.90;78.90;;;;;;4993366;28;20019;-56
2022/10/06 13:28:03;;;;;;;5.95;2.72;;;19.10;77.60;;;;;;4994274;28;20031;-57
2022/10/06 13:30:55;;;;;;;10.02;3.00;;;19.00;78.20;;;;;;4993966;28;20031;-57
2022/10/06 13:33:42;;;;;;;9.00;2.90;;;19.00;78.80;;;;;;4994407;28;20026;-58
2022/10/06 13:36:32;;;;;;;7.88;2.97;;;19.30;79.10;;;;;;4989065;28;20086;-57
2022/10/06 13:39:24;;;;;;;11.30;3.00;;;19.20;80.30;;;;;;5006266;28;20033;-56
2022/10/06 13:42:17;;;;;;;10.68;3.10;;;19.30;79.80;;;;;;5014048;28;20510;-58
2022/10/06 13:45:03;;;;;;;5.68;2.63;;;19.30;78.40;;;;;;5014425;28;20053;-57
2022/10/06 13:48:06;;;;;;;7.43;2.92;;;19.30;79.30;;;;;;5014577;28;20037;-59
2022/10/06 13:50:52;;;;;;;7.18;2.88;;;19.50;78.40;;;;;;5013088;28;20049;-54
2022/10/06 13:53:38;;;;;;;13.18;2.80;;;19.80;78.10;;;;;;5013352;28;20088;-57
2022/10/06 13:56:27;;;;;;;8.38;3.00;;;19.70;77.70;;;;;;5013856;28;20029;-57
2022/10/06 13:59:37;;;;;;;9.98;3.00;;;19.70;78.50;;;;;;5013268;28;20041;-59
2022/10/06 14:02:31;;;;;;;8.77;3.20;;;20.00;78.00;;;;;;4998076;28;20150;-64
2022/10/06 14:05:25;;;;;;;8.65;3.55;;;19.90;77.90;;;;;;4998688;28;20374;-60
2022/10/06 14:08:11;;;;;;;10.43;3.40;;;19.70;77.90;;;;;;5013188;28;20030;-59
2022/10/06 14:11:05;;;;;;;6.65;3.10;;;19.80;77.20;;;;;;5013231;28;20026;-59
2022/10/06 14:14:02;;;;;;;6.78;2.80;;;19.60;77.40;;;;;;5013772;28;20029;-59
2022/10/06 14:16:51;;;;;;;9.73;3.40;;;19.50;77.60;;;;;;5012270;28;20057;-57
2022/10/06 14:19:41;;;;;;;6.53;2.65;;;19.70;77.40;;;;;;5012569;28;20033;-58
2022/10/06 14:22:37;;;;;;;8.98;3.05;;;19.90;76.30;;;;;;5012713;28;20018;-56
2022/10/06 14:25:23;;;;;;;7.00;2.90;;;19.60;76.80;;;;;;5011839;28;20038;-57
2022/10/06 14:28:09;;;;;;;7.07;2.72;;;19.70;77.20;;;;;;4999507;28;20080;-55
2022/10/06 14:30:56;;;;;;;9.95;3.03;;;20.10;76.20;;;;;;4997893;28;20062;-57
2022/10/06 14:33:44;;;;;;;6.63;2.55;;;20.60;75.50;;;;;;5010131;28;20050;-58
2022/10/06 14:36:35;;;;;;;4.50;2.40;;;20.70;73.40;;;;;;5015281;28;20028;-58
2022/10/06 14:39:21;;;;;;;7.00;2.92;;;20.60;73.60;;;;;;5004594;28;20508;-57
2022/10/06 14:42:08;;;;;;;8.82;3.05;;;21.10;72.60;;;;;;5021620;28;20109;-57
2022/10/06 14:44:54;;;;;;;6.40;2.63;;;21.20;72.90;;;;;;5023278;28;20022;-59
2022/10/06 14:47:40;;;;;;;6.38;3.00;;;22.20;71.60;;;;;;5016503;28;20025;-56
2022/10/06 14:50:29;;;;;;;7.70;2.80;;;22.90;68.70;;;;;;4995459;28;20042;-55
2022/10/06 14:53:16;;;;;;;8.52;2.88;;;22.40;69.00;;;;;;4990868;28;20030;-53
2022/10/06 14:56:09;;;;;;;7.90;2.80;;;22.00;68.90;;;;;;4979598;28;20033;-57